Fulda, Minnesota
Current Conditions -  °F | °C
As of 9:36 PM on Friday 19 Dec 2014 (Local Time) from KDVP Reporting Station
Haze Haze  
Wind Chill: 25°   Ceiling: 800
Heat Index: 29°   Visibility: 5mi
Dew Point: 29°   Wind: 5mph
Humidity: 98%   Direction: 190°S
Pressure: 30.08"   Gusts: NA
Location:  43.87°N, 95.6°W
Report Text: KDVP 200336Z AUTO 19004KT 5SM BR OVC008 M01/M02 A3008 RMK AO2 T10141017
Loading
Personal Weather Stations






























Interactive Weather Map New forecast layout! Learn more

10-Day Weather Forecast

Advertisements
Track Severe Weather on mobile